createdAt,value
2017-09-22T00:01:22.646Z,13.90
2017-09-22T00:04:24.083Z,14.30
2017-09-22T00:07:25.495Z,13.20
2017-09-22T00:10:27.749Z,14.50
2017-09-22T00:13:29.257Z,14.30
2017-09-22T00:16:30.713Z,14.10
2017-09-22T00:19:32.126Z,13.50
2017-09-22T00:22:34.323Z,14.30
2017-09-22T00:25:35.791Z,13.80
2017-09-22T00:28:37.340Z,14.40
2017-09-22T00:31:39.007Z,14.60
2017-09-22T00:34:40.494Z,14.10
2017-09-22T00:37:42.022Z,13.60
2017-09-22T00:40:43.509Z,14.30
2017-09-22T00:43:45.069Z,13.90
2017-09-22T00:46:47.351Z,14.20
2017-09-22T00:49:49.721Z,14.10
2017-09-22T00:52:51.946Z,14.10
2017-09-22T00:55:53.453Z,14.10
2017-09-22T00:58:55.292Z,14.30
2017-09-22T01:01:56.784Z,13.40
2017-09-22T01:04:58.293Z,15.10
2017-09-22T01:07:59.717Z,14.00
2017-09-22T01:11:01.142Z,14.60
2017-09-22T01:14:02.641Z,13.20
2017-09-22T01:17:04.187Z,14.00
2017-09-22T01:20:05.843Z,12.50
2017-09-22T01:23:07.333Z,15.10
2017-09-22T01:26:09.541Z,14.00
2017-09-22T01:29:11.055Z,14.20
2017-09-22T01:32:12.585Z,14.60
2017-09-22T01:35:14.034Z,13.30
2017-09-22T01:38:15.497Z,14.10
2017-09-22T01:41:17.393Z,14.10
2017-09-22T01:44:19.538Z,14.00
2017-09-22T01:47:21.046Z,13.90
2017-09-22T01:50:22.592Z,13.90
2017-09-22T01:53:24.068Z,12.80
2017-09-22T01:56:25.503Z,13.20
2017-09-22T01:59:26.974Z,13.80
2017-09-22T02:02:28.511Z,14.00
2017-09-22T02:05:30.040Z,13.40
2017-09-22T02:08:31.670Z,14.10
2017-09-22T02:11:33.938Z,13.90
2017-09-22T02:14:35.838Z,14.50
2017-09-22T02:17:37.257Z,14.30
2017-09-22T02:20:38.780Z,14.40
2017-09-22T02:23:40.263Z,13.10
2017-09-22T02:26:41.741Z,13.60
2017-09-22T02:29:44.091Z,13.60
2017-09-22T02:32:46.364Z,13.70
2017-09-22T02:35:47.971Z,12.90
2017-09-22T02:38:49.653Z,13.00
2017-09-22T02:41:51.264Z,13.10
2017-09-22T02:44:53.550Z,13.70
2017-09-22T02:47:55.009Z,13.90
2017-09-22T02:50:56.510Z,12.90
2017-09-22T02:53:58.023Z,12.90
2017-09-22T03:00:08.518Z,13.80
2017-09-22T03:03:10.201Z,13.60
2017-09-22T03:06:11.657Z,13.20
2017-09-22T03:09:13.372Z,12.70
2017-09-22T03:12:14.833Z,14.50
2017-09-22T03:15:16.325Z,13.60
2017-09-22T03:18:17.803Z,12.40
2017-09-22T03:21:19.959Z,13.60
2017-09-22T03:24:22.105Z,13.60
2017-09-22T03:27:23.625Z,13.50
2017-09-22T03:30:25.217Z,13.50
2017-09-22T03:33:27.384Z,13.50
2017-09-22T03:36:29.035Z,12.70
2017-09-22T03:39:30.512Z,14.40
2017-09-22T03:42:32.013Z,13.80
2017-09-22T03:45:33.424Z,13.20
2017-09-22T03:48:35.610Z,13.40
2017-09-22T03:51:37.094Z,12.60
2017-09-22T03:54:38.574Z,12.70
2017-09-22T03:57:40.434Z,13.30
2017-09-22T04:00:41.885Z,12.50
2017-09-22T04:03:43.453Z,13.40
2017-09-22T04:06:44.974Z,13.70
2017-09-22T04:09:46.461Z,12.70
2017-09-22T04:12:47.943Z,12.70
2017-09-22T04:15:49.447Z,12.60
2017-09-22T04:18:50.896Z,13.70
2017-09-22T04:21:52.346Z,12.50
2017-09-22T04:24:53.854Z,13.30
2017-09-22T04:27:55.409Z,12.60
2017-09-22T04:30:57.000Z,12.90
2017-09-22T04:33:58.510Z,13.20
2017-09-22T04:37:01.215Z,13.20
2017-09-22T04:40:02.735Z,12.60
2017-09-22T04:43:04.202Z,12.40
2017-09-22T04:46:05.683Z,12.60
2017-09-22T04:49:07.236Z,13.70
2017-09-22T04:52:08.976Z,13.10
2017-09-22T04:55:10.465Z,13.00
2017-09-22T04:58:12.293Z,12.90
2017-09-22T05:01:13.732Z,12.60
2017-09-22T05:04:15.962Z,13.20
2017-09-22T05:07:17.545Z,13.10
2017-09-22T05:10:19.816Z,13.20
2017-09-22T05:13:21.248Z,12.60
2017-09-22T05:16:22.912Z,12.30
2017-09-22T05:19:24.553Z,12.60
2017-09-22T05:22:25.981Z,12.30
2017-09-22T05:25:28.546Z,13.80
2017-09-22T05:28:30.057Z,12.00
2017-09-22T05:31:32.322Z,13.20
2017-09-22T05:34:34.550Z,13.10
2017-09-22T05:37:36.096Z,13.00
2017-09-22T05:40:37.570Z,13.50
2017-09-22T05:43:39.095Z,12.00
2017-09-22T05:46:40.568Z,12.40
2017-09-22T05:49:42.251Z,13.30
2017-09-22T05:52:44.564Z,13.10
2017-09-22T05:55:45.997Z,13.40
2017-09-22T05:58:48.350Z,13.10
2017-09-22T06:01:49.908Z,13.00
2017-09-22T06:04:51.477Z,13.00
2017-09-22T06:07:53.902Z,13.20
2017-09-22T06:10:55.358Z,12.90
2017-09-22T06:13:57.022Z,13.10
2017-09-22T06:16:58.603Z,12.40
2017-09-22T06:20:00.308Z,13.00
2017-09-22T06:23:01.785Z,12.50
2017-09-22T06:26:03.424Z,13.50
2017-09-22T06:29:04.979Z,12.40
2017-09-22T06:32:06.454Z,12.90
2017-09-22T06:35:07.911Z,13.40
2017-09-22T06:38:09.459Z,13.20
2017-09-22T06:41:11.163Z,13.80
2017-09-22T06:44:14.363Z,13.20
2017-09-22T06:47:15.831Z,13.10
2017-09-22T06:50:17.296Z,13.70
2017-09-22T06:53:18.786Z,11.70
2017-09-22T06:56:20.206Z,13.20
2017-09-22T06:59:21.680Z,13.30
2017-09-22T07:02:23.018Z,13.20
2017-09-22T07:05:24.409Z,12.20
2017-09-22T07:08:25.798Z,13.20
2017-09-22T07:11:27.277Z,13.30
2017-09-22T07:14:28.784Z,12.80
2017-09-22T07:17:30.992Z,13.40
2017-09-22T07:20:32.400Z,13.20
2017-09-22T07:23:33.785Z,13.00
2017-09-22T07:26:35.246Z,13.70
2017-09-22T07:29:36.679Z,13.20
2017-09-22T07:32:38.088Z,12.50
2017-09-22T07:35:39.513Z,12.60
2017-09-22T07:38:41.058Z,13.30
2017-09-22T07:41:42.589Z,12.30
2017-09-22T07:44:44.776Z,13.70
2017-09-22T07:47:46.263Z,14.20
2017-09-22T07:50:47.636Z,13.50
2017-09-22T07:53:49.118Z,13.90
2017-09-22T07:56:51.278Z,13.90
2017-09-22T07:59:53.807Z,13.90
2017-09-22T08:02:55.288Z,13.50
2017-09-22T08:05:56.704Z,13.90
2017-09-22T08:08:58.126Z,13.30
2017-09-22T08:11:59.543Z,12.50
2017-09-22T08:15:00.951Z,14.10
2017-09-22T08:18:02.419Z,14.00
2017-09-22T08:21:03.867Z,13.80
2017-09-22T08:24:05.257Z,14.20
2017-09-22T08:27:06.676Z,14.10
2017-09-22T08:30:08.249Z,14.20
2017-09-22T08:33:09.822Z,13.60
2017-09-22T08:36:11.396Z,14.10
2017-09-22T08:39:14.249Z,16.10
2017-09-22T08:42:17.878Z,16.10
2017-09-22T08:45:19.347Z,16.80
2017-09-22T08:48:20.871Z,17.10
2017-09-22T08:51:22.292Z,16.40
2017-09-22T08:54:23.799Z,15.70
2017-09-22T08:57:26.048Z,15.50
2017-09-22T09:00:27.473Z,15.90
2017-09-22T09:07:01.932Z,15.60
2017-09-22T09:10:03.386Z,15.90
2017-09-22T09:13:04.769Z,15.60
2017-09-22T09:16:06.955Z,15.60
2017-09-22T09:19:08.521Z,14.50
2017-09-22T09:22:09.967Z,14.80
2017-09-22T09:25:11.540Z,14.50
2017-09-22T09:28:13.045Z,16.30
2017-09-22T09:31:14.518Z,15.30
2017-09-22T09:34:16.644Z,15.80
2017-09-22T09:37:18.059Z,16.30
2017-09-22T09:40:19.570Z,15.30
2017-09-22T09:43:21.799Z,15.90
2017-09-22T09:46:23.198Z,16.30
2017-09-22T09:49:25.415Z,16.10
2017-09-22T09:52:26.867Z,14.40
2017-09-22T09:55:28.356Z,16.80
2017-09-22T09:58:29.890Z,15.90
2017-09-22T10:01:31.362Z,16.00
2017-09-22T10:04:32.857Z,17.00
2017-09-22T10:07:34.345Z,15.60
2017-09-22T10:10:35.857Z,16.40
2017-09-22T10:13:38.071Z,16.80
2017-09-22T10:16:39.516Z,16.60
2017-09-22T10:19:40.943Z,16.90
2017-09-22T10:22:42.420Z,16.20
2017-09-22T10:25:44.398Z,16.60
2017-09-22T10:28:46.118Z,18.60
2017-09-22T10:31:47.994Z,17.40
2017-09-22T10:34:49.841Z,18.30
2017-09-22T10:37:52.167Z,17.60
2017-09-22T10:40:53.627Z,16.90
2017-09-22T10:43:55.928Z,17.20
2017-09-22T10:46:57.492Z,16.50
2017-09-22T10:49:59.052Z,16.20
2017-09-22T10:53:00.701Z,16.50
2017-09-22T10:56:02.162Z,16.60
2017-09-22T10:59:03.630Z,17.10
2017-09-22T11:02:05.131Z,17.10
2017-09-22T11:05:07.385Z,17.40
2017-09-22T11:08:08.975Z,16.80
2017-09-22T11:11:11.222Z,17.80
2017-09-22T11:14:12.762Z,17.40
2017-09-22T11:17:14.249Z,17.20
2017-09-22T11:20:16.402Z,18.10
2017-09-22T11:23:17.863Z,17.30
2017-09-22T11:26:19.363Z,18.10
2017-09-22T11:29:20.804Z,17.80
2017-09-22T11:32:22.300Z,17.90
2017-09-22T11:35:23.752Z,17.30
2017-09-22T11:38:25.401Z,18.10
2017-09-22T11:41:26.851Z,16.90
2017-09-22T11:44:28.423Z,17.30
2017-09-22T11:47:29.888Z,17.30
2017-09-22T11:50:31.370Z,18.20
2017-09-22T11:53:32.884Z,17.60
2017-09-22T11:56:34.413Z,17.30
2017-09-22T11:59:35.833Z,17.10
2017-09-22T12:02:37.230Z,17.60
2017-09-22T12:05:38.834Z,17.70
2017-09-22T12:08:41.085Z,17.90
2017-09-22T12:11:43.438Z,18.00
2017-09-22T12:14:44.948Z,18.80
2017-09-22T12:17:46.468Z,17.70
2017-09-22T12:20:48.553Z,17.90
2017-09-22T12:23:50.167Z,18.30
2017-09-22T12:26:51.659Z,17.40
2017-09-22T12:29:53.850Z,18.30
2017-09-22T12:32:55.572Z,18.70
2017-09-22T12:35:57.149Z,17.90
2017-09-22T12:38:58.692Z,18.70
2017-09-22T12:42:00.149Z,18.90
2017-09-22T12:45:01.578Z,18.10
2017-09-22T12:48:03.013Z,17.90
2017-09-22T12:51:05.722Z,18.60
2017-09-22T12:54:07.068Z,18.60
2017-09-22T12:57:08.402Z,18.60
2017-09-22T13:00:09.756Z,18.60
2017-09-22T13:03:11.083Z,18.50
2017-09-22T13:06:13.115Z,18.80
2017-09-22T13:09:14.423Z,18.80
2017-09-22T13:12:17.324Z,18.70
2017-09-22T13:15:18.691Z,18.60
2017-09-22T13:18:20.044Z,18.50
2017-09-22T13:21:21.340Z,18.10
2017-09-22T13:24:23.443Z,18.10
2017-09-22T13:27:24.815Z,18.10
2017-09-22T13:30:26.156Z,18.10
2017-09-22T13:33:27.439Z,18.10
2017-09-22T13:36:28.725Z,18.40
2017-09-22T13:39:30.039Z,18.40
2017-09-22T13:42:31.292Z,18.30
2017-09-22T13:45:32.714Z,18.30
2017-09-22T13:48:34.023Z,18.30
2017-09-22T13:51:35.369Z,18.30
2017-09-22T13:54:36.730Z,18.30
2017-09-22T13:57:38.003Z,18.20
2017-09-22T14:00:39.286Z,18.10
2017-09-22T14:03:40.591Z,18.10
2017-09-22T14:06:41.862Z,18.00
2017-09-22T14:09:43.164Z,18.00
2017-09-22T14:12:44.435Z,17.90
2017-09-22T14:15:45.873Z,17.80
2017-09-22T14:18:47.202Z,17.80
2017-09-22T14:21:49.244Z,17.90
2017-09-22T14:24:50.655Z,17.80
2017-09-22T14:27:51.943Z,17.90
2017-09-22T14:30:53.470Z,17.90
2017-09-22T14:33:54.743Z,17.90
2017-09-22T14:36:56.031Z,17.90
2017-09-22T14:39:57.287Z,17.90
2017-09-22T14:42:58.583Z,17.90
2017-09-22T14:45:59.948Z,17.80
2017-09-22T14:49:02.469Z,17.70
2017-09-22T14:52:04.292Z,17.90
2017-09-22T14:55:06.377Z,17.60
2017-09-22T14:58:08.448Z,17.60
2017-09-22T15:01:09.760Z,17.50
2017-09-22T15:04:11.070Z,17.50
2017-09-22T15:07:12.408Z,17.40
2017-09-22T15:10:13.728Z,17.40
2017-09-22T15:13:16.284Z,17.40
2017-09-22T15:16:18.338Z,17.40
2017-09-22T15:19:20.565Z,17.40
2017-09-22T15:22:21.895Z,17.30
2017-09-22T15:25:23.980Z,17.30
2017-09-22T15:28:25.336Z,16.70
2017-09-22T15:31:26.852Z,17.10
2017-09-22T15:34:28.935Z,17.30
2017-09-22T15:37:31.167Z,17.30
2017-09-22T15:40:33.223Z,17.30
2017-09-22T15:43:34.508Z,17.10
2017-09-22T15:46:35.849Z,17.10
2017-09-22T15:49:37.228Z,17.20
2017-09-22T15:52:39.456Z,17.20
2017-09-22T15:55:40.936Z,17.20
2017-09-22T15:58:42.279Z,17.80
2017-09-22T16:01:43.678Z,17.30
2017-09-22T16:04:44.966Z,18.00
2017-09-22T16:07:47.063Z,17.20
2017-09-22T16:10:49.084Z,17.20
2017-09-22T16:13:50.534Z,17.10
2017-09-22T16:16:51.840Z,17.10
2017-09-22T16:19:53.918Z,17.10
2017-09-22T16:22:55.254Z,17.00
2017-09-22T16:25:57.335Z,17.10
2017-09-22T16:28:58.575Z,17.10
2017-09-22T16:31:59.879Z,17.20
2017-09-22T16:35:01.881Z,17.00
2017-09-22T16:38:04.147Z,16.90
2017-09-22T16:41:05.788Z,16.90
2017-09-22T16:44:07.187Z,16.80
2017-09-22T16:47:08.569Z,16.80
2017-09-22T16:50:09.961Z,16.70
2017-09-22T16:53:11.335Z,16.70
2017-09-22T16:56:12.686Z,16.70
2017-09-22T16:59:14.137Z,16.50
2017-09-22T17:02:15.792Z,16.60
2017-09-22T17:05:17.150Z,16.70
2017-09-22T17:08:18.571Z,16.60
2017-09-22T17:11:20.936Z,16.60
2017-09-22T17:14:23.030Z,16.50
2017-09-22T17:17:24.313Z,16.30
2017-09-22T17:20:25.623Z,16.50
2017-09-22T17:23:26.915Z,16.50
2017-09-22T17:26:28.232Z,16.50
2017-09-22T17:29:29.675Z,16.40
2017-09-22T17:32:30.977Z,16.40
2017-09-22T17:35:32.275Z,16.40
2017-09-22T17:38:33.628Z,16.40
2017-09-22T17:41:34.960Z,16.40
2017-09-22T17:44:36.976Z,16.40
2017-09-22T17:47:38.283Z,16.30
2017-09-22T17:50:41.403Z,16.30
2017-09-22T17:53:43.202Z,16.30
2017-09-22T17:56:44.903Z,16.30
2017-09-22T17:59:46.251Z,16.20
2017-09-22T18:02:47.587Z,16.20
2017-09-22T18:05:49.617Z,16.00
2017-09-22T18:08:51.622Z,16.00
2017-09-22T18:11:53.674Z,16.00
2017-09-22T18:14:54.959Z,16.10
2017-09-22T18:17:56.390Z,16.00
2017-09-22T18:20:58.471Z,16.00
2017-09-22T18:23:59.899Z,16.00
2017-09-22T18:27:01.163Z,16.10
2017-09-22T18:30:02.527Z,16.00
2017-09-22T18:33:03.891Z,15.90
2017-09-22T18:36:05.957Z,15.90
2017-09-22T18:39:08.236Z,15.90
2017-09-22T18:42:10.275Z,16.00
2017-09-22T18:45:11.755Z,16.00
2017-09-22T18:48:13.816Z,16.00
2017-09-22T18:51:15.881Z,15.90
2017-09-22T18:54:17.932Z,15.90
2017-09-22T18:57:19.212Z,15.80
2017-09-22T19:00:20.585Z,15.80
2017-09-22T19:03:22.112Z,15.80
2017-09-22T19:06:24.178Z,15.80
2017-09-22T19:09:28.395Z,15.80
2017-09-22T19:12:31.858Z,15.80
2017-09-22T19:15:33.236Z,15.60
2017-09-22T19:18:35.532Z,15.80
2017-09-22T19:21:37.240Z,15.80
2017-09-22T19:24:39.644Z,15.80
2017-09-22T19:27:41.687Z,15.90
2017-09-22T19:30:43.113Z,15.80
2017-09-22T19:33:45.786Z,15.80
2017-09-22T19:36:47.576Z,15.80
2017-09-22T19:39:50.319Z,15.80
2017-09-22T19:42:53.120Z,15.70
2017-09-22T19:45:55.356Z,15.80
2017-09-22T19:48:57.937Z,15.90
2017-09-22T19:51:59.491Z,15.90
2017-09-22T19:55:03.550Z,15.80
2017-09-22T19:58:07.682Z,15.90
2017-09-22T20:01:10.167Z,15.80
2017-09-22T20:04:11.690Z,15.80
2017-09-22T20:07:14.268Z,15.70
2017-09-22T20:10:17.699Z,15.80
2017-09-22T20:13:20.785Z,15.80
2017-09-22T20:16:23.220Z,15.80
2017-09-22T20:19:25.304Z,15.80
2017-09-22T20:22:26.880Z,15.80
2017-09-22T20:25:28.635Z,15.70
2017-09-22T20:28:29.964Z,15.80
2017-09-22T20:31:31.318Z,15.60
2017-09-22T20:34:32.608Z,15.70
2017-09-22T20:37:33.957Z,15.60
2017-09-22T20:40:35.653Z,15.80
2017-09-22T20:43:37.006Z,15.80
2017-09-22T20:46:39.041Z,15.90
2017-09-22T20:49:40.500Z,15.90
2017-09-22T20:52:41.776Z,15.80
2017-09-22T20:55:43.936Z,15.80
2017-09-22T20:58:45.972Z,15.80
2017-09-22T21:01:47.246Z,15.80
2017-09-22T21:04:48.543Z,15.90
2017-09-22T21:07:49.862Z,15.70
2017-09-22T21:10:51.970Z,15.80
2017-09-22T21:13:53.245Z,15.80
2017-09-22T21:16:54.507Z,15.80
2017-09-22T21:19:55.770Z,15.80
2017-09-22T21:22:57.780Z,15.90
2017-09-22T21:25:59.071Z,15.90
2017-09-22T21:29:00.487Z,15.80
2017-09-22T21:32:01.795Z,15.90
2017-09-22T21:35:03.801Z,15.90
2017-09-22T21:38:05.189Z,15.90
2017-09-22T21:41:07.206Z,15.90
2017-09-22T21:44:08.520Z,15.90
2017-09-22T21:47:10.581Z,15.90
2017-09-22T21:50:12.671Z,15.90
2017-09-22T21:53:14.112Z,15.90
2017-09-22T21:56:16.261Z,15.90
2017-09-22T21:59:18.037Z,15.90
2017-09-22T22:02:20.157Z,15.90
2017-09-22T22:05:27.538Z,15.90
2017-09-22T22:08:28.912Z,15.90
2017-09-22T22:11:30.252Z,15.90
2017-09-22T22:14:31.716Z,16.00
2017-09-22T22:17:33.012Z,15.80
2017-09-22T22:20:34.421Z,15.90
2017-09-22T22:23:35.767Z,15.90
2017-09-22T22:26:37.120Z,15.90
2017-09-22T22:29:38.467Z,16.00
2017-09-22T22:32:39.791Z,15.90
2017-09-22T22:35:41.115Z,15.90
2017-09-22T22:38:42.505Z,15.90
2017-09-22T22:41:44.553Z,15.90
2017-09-22T22:44:45.895Z,15.80
2017-09-22T22:47:47.243Z,15.90
2017-09-22T22:50:48.594Z,15.90
2017-09-22T22:53:49.989Z,15.90
2017-09-22T22:56:51.461Z,15.90
2017-09-22T22:59:52.894Z,15.90
2017-09-22T23:02:54.216Z,15.80
2017-09-22T23:05:55.595Z,15.90
2017-09-22T23:08:56.903Z,15.90
2017-09-22T23:11:58.238Z,15.90
2017-09-22T23:14:59.556Z,15.90
2017-09-22T23:18:00.910Z,15.90
2017-09-22T23:21:02.402Z,15.80
2017-09-22T23:24:03.740Z,15.80
2017-09-22T23:27:05.085Z,15.80
2017-09-22T23:30:07.161Z,15.90
2017-09-22T23:33:08.494Z,15.90
2017-09-22T23:36:17.439Z,15.90
2017-09-22T23:39:18.778Z,15.80
2017-09-22T23:42:20.890Z,15.70
2017-09-22T23:45:22.208Z,15.80
2017-09-22T23:48:23.659Z,15.80
2017-09-22T23:51:24.970Z,15.80
2017-09-22T23:54:26.343Z,15.80
2017-09-22T23:57:28.400Z,15.80
